Time;durP1;ratioP1;P1;durP2;ratioP2;P2;SDS_P1;SDS_P2;PMS_P1;PMS_P2;Temp;Humidity;BMP_temperature;BMP_pressure;BME280_temperature;BME280_humidity;BME280_pressure;Samples;Min_cycle;Max_cycle;Signal;HPM_P1;HPM_P2
2022/11/04 00:01:21;;;;;;;;;;;10.90;99.90;;;;;;5062439;28;19988;-77
2022/11/04 00:03:47;;;;;;;;;;;10.90;99.90;;;;;;5062322;28;19909;-77
2022/11/04 00:06:13;;;;;;;;;;;10.90;99.90;;;;;;5045293;28;19920;-78
2022/11/04 00:08:38;;;;;;;;;;;10.90;99.90;;;;;;5063213;28;19920;-78
2022/11/04 00:13:48;;;;;;;;;;;10.90;99.90;;;;;;5081979;28;19915;-78
2022/11/04 00:18:59;;;;;;;;;;;10.90;99.90;;;;;;5082742;28;20110;-78
2022/11/04 00:30:03;;;;;;;;;;;10.70;99.90;;;;;;5030883;28;19915;-78
2022/11/04 00:35:14;;;;;;;;;;;10.70;99.90;;;;;;5082534;28;19954;-77
2022/11/04 00:37:40;;;;;;;;;;;10.70;99.90;;;;;;5081647;28;20207;-78
2022/11/04 00:40:07;;;;;;;;;;;10.70;99.90;;;;;;5062302;28;19916;-78
2022/11/04 00:42:33;;;;;;;;;;;10.70;99.90;;;;;;5061945;28;19940;-79
2022/11/04 00:44:59;;;;;;;;;;;10.60;99.90;;;;;;5062033;28;19939;-78
2022/11/04 00:47:24;;;;;;;;;;;10.60;99.90;;;;;;5061763;28;19952;-79
2022/11/04 00:49:50;;;;;;;;;;;10.70;99.90;;;;;;5062465;28;20220;-78
2022/11/04 00:52:16;;;;;;;;;;;10.70;99.90;;;;;;5062358;28;19984;-78
2022/11/04 00:54:41;;;;;;;;;;;10.60;99.90;;;;;;5062110;28;19912;-79
2022/11/04 00:57:13;;;;;;;;;;;10.60;99.90;;;;;;5061811;28;19913;-78
2022/11/04 00:59:39;;;;;;;;;;;10.60;99.90;;;;;;5064573;28;20054;-78
2022/11/04 01:02:05;;;;;;;;;;;10.60;99.90;;;;;;5066678;28;19916;-79
2022/11/04 01:04:31;;;;;;;;;;;10.60;99.90;;;;;;5066448;28;19958;-78
2022/11/04 01:06:56;;;;;;;;;;;10.60;99.90;;;;;;5065346;28;20112;-78
2022/11/04 01:09:22;;;;;;;;;;;10.50;99.90;;;;;;5067197;28;19915;-78
2022/11/04 01:11:48;;;;;;;;;;;10.50;99.90;;;;;;5085353;28;19917;-78
2022/11/04 01:14:13;;;;;;;;;;;10.50;99.90;;;;;;5085413;28;19973;-78
2022/11/04 01:16:39;;;;;;;;;;;10.50;99.90;;;;;;5084987;28;19940;-77
2022/11/04 01:19:05;;;;;;;;;;;10.50;99.90;;;;;;5085171;28;19908;-78
2022/11/04 01:21:30;;;;;;;;;;;10.50;99.90;;;;;;5067730;28;20200;-78
2022/11/04 01:23:56;;;;;;;;;;;10.50;99.90;;;;;;5085685;28;19908;-77
2022/11/04 01:26:23;;;;;;;;;;;10.50;99.90;;;;;;5085446;28;19923;-78
2022/11/04 01:28:50;;;;;;;;;;;10.50;99.90;;;;;;5084582;28;19923;-78
2022/11/04 01:31:17;;;;;;;;;;;10.50;99.90;;;;;;5084491;28;19912;-77
2022/11/04 01:33:43;;;;;;;;;;;10.50;99.90;;;;;;5085579;28;19908;-78
2022/11/04 01:36:09;;;;;;;;;;;10.60;99.90;;;;;;5084199;28;20162;-78
2022/11/04 01:38:35;;;;;;;;;;;10.60;99.90;;;;;;5067867;28;19919;-77
2022/11/04 01:41:01;;;;;;;;;;;10.60;99.90;;;;;;5084563;28;20199;-78
2022/11/04 01:43:45;;;;;;;;;;;10.60;99.90;;;;;;5084603;28;20089;-78
2022/11/04 01:46:16;;;;;;;;;;;10.70;99.90;;;;;;5084159;28;20146;-78
2022/11/04 01:48:41;;;;;;;;;;;10.70;99.90;;;;;;5085496;28;19909;-78
2022/11/04 01:51:07;;;;;;;;;;;10.80;99.90;;;;;;5083882;28;19961;-77
2022/11/04 01:53:34;;;;;;;;;;;10.80;99.90;;;;;;5067441;28;19977;-77
2022/11/04 01:56:03;;;;;;;;;;;10.90;99.90;;;;;;5083907;28;19916;-76
2022/11/04 01:58:30;;;;;;;;;;;10.90;99.90;;;;;;5084054;28;20019;-78
2022/11/04 02:00:56;;;;;;;;;;;10.90;99.90;;;;;;5084260;28;19916;-78
2022/11/04 02:03:34;;;;;;;;;;;10.90;99.90;;;;;;5067283;28;19912;-77
2022/11/04 02:05:59;;;;;;;;;;;10.90;99.90;;;;;;5066508;28;19924;-77
2022/11/04 02:08:25;;;;;;;;;;;11.00;99.90;;;;;;5083408;28;19936;-77
2022/11/04 02:10:59;;;;;;;;;;;10.90;99.90;;;;;;5083396;28;19962;-78
2022/11/04 02:13:25;;;;;;;;;;;10.90;99.90;;;;;;5083738;28;19917;-77
2022/11/04 02:16:00;;;;;;;;;;;11.00;99.90;;;;;;5084070;28;19908;-78
2022/11/04 02:18:39;;;;;;;;;;;10.90;99.90;;;;;;5085166;28;19908;-78
2022/11/04 02:21:23;;;;;;;;;;;10.90;99.90;;;;;;5085229;28;20317;-78
2022/11/04 02:24:27;;;;;;;;;;;11.00;99.90;;;;;;5084103;28;19921;-77
2022/11/04 02:27:15;;;;;;;;;;;11.00;99.90;;;;;;5084902;28;19915;-78
2022/11/04 02:29:53;;;;;;;;;;;10.90;99.90;;;;;;5083910;28;19912;-77
2022/11/04 02:32:40;;;;;;;;;;;10.90;99.90;;;;;;5083775;28;19908;-78
2022/11/04 02:35:12;;;;;;;;;;;10.90;99.90;;;;;;5084618;28;19948;-78
2022/11/04 02:37:57;;;;;;;;;;;10.90;99.90;;;;;;5084648;28;19924;-79
2022/11/04 02:40:28;;;;;;;;;;;10.90;99.90;;;;;;5067072;28;19908;-77
2022/11/04 02:43:08;;;;;;;;;;;10.90;99.90;;;;;;5083770;28;19908;-78
2022/11/04 02:46:01;;;;;;;;;;;10.90;99.90;;;;;;5084000;28;19908;-78
2022/11/04 02:48:37;;;;;;;;;;;10.90;99.90;;;;;;5083693;28;19923;-79
2022/11/04 02:51:30;;;;;;;;;;;11.00;99.90;;;;;;5084004;28;19938;-79
2022/11/04 02:54:13;;;;;;;;;;;11.00;99.90;;;;;;5068603;28;19916;-77
2022/11/04 02:56:42;;;;;;;;;;;11.00;99.90;;;;;;5083826;28;19923;-78
2022/11/04 02:59:12;;;;;;;;;;;11.00;99.90;;;;;;5083467;28;19954;-78
2022/11/04 03:01:40;;;;;;;;;;;11.00;99.90;;;;;;5083777;28;19908;-78
2022/11/04 03:04:10;;;;;;;;;;;11.00;99.90;;;;;;5083409;28;19912;-79
2022/11/04 03:06:36;;;;;;;;;;;11.00;99.90;;;;;;5066433;28;20143;-79
2022/11/04 03:09:02;;;;;;;;;;;11.00;99.90;;;;;;5067210;28;19954;-79
2022/11/04 03:11:27;;;;;;;;;;;11.00;99.90;;;;;;5083421;28;19908;-78
2022/11/04 03:13:56;;;;;;;;;;;11.00;99.90;;;;;;5082783;28;20281;-77
2022/11/04 03:16:26;;;;;;;;;;;11.00;99.90;;;;;;5083272;28;19987;-78
2022/11/04 03:19:01;;;;;;;;;;;10.90;99.90;;;;;;5082431;28;19923;-78
2022/11/04 03:21:27;;;;;;;;;;;10.90;99.90;;;;;;5080972;28;19916;-77
2022/11/04 03:23:53;;;;;;;;;;;10.90;99.90;;;;;;5082440;28;19915;-78
2022/11/04 03:26:23;;;;;;;;;;;10.90;99.90;;;;;;5082205;28;19908;-78
2022/11/04 03:28:58;;;;;;;;;;;10.90;99.90;;;;;;5065571;28;20265;-78
2022/11/04 03:31:35;;;;;;;;;;;10.90;99.90;;;;;;5082242;28;19915;-78
2022/11/04 03:34:01;;;;;;;;;;;10.90;99.90;;;;;;5082199;28;19920;-78
2022/11/04 03:36:28;;;;;;;;;;;10.90;99.90;;;;;;5081664;28;19950;-78
2022/11/04 03:38:54;;;;;;;;;;;10.90;99.90;;;;;;5082032;28;19947;-77
2022/11/04 03:41:34;;;;;;;;;;;10.90;99.90;;;;;;5082163;28;19909;-79
2022/11/04 03:44:00;;;;;;;;;;;10.90;99.90;;;;;;5065552;28;19908;-78
2022/11/04 03:46:26;;;;;;;;;;;10.90;99.90;;;;;;5082019;28;20123;-77
2022/11/04 03:48:52;;;;;;;;;;;10.90;99.90;;;;;;5081678;28;20107;-77
2022/11/04 03:51:17;;;;;;;;;;;10.90;99.90;;;;;;5081460;28;20118;-77
2022/11/04 03:53:43;;;;;;;;;;;10.90;99.90;;;;;;5081678;28;19943;-77
2022/11/04 03:56:12;;;;;;;;;;;10.90;99.90;;;;;;5081236;28;19919;-77
2022/11/04 03:58:43;;;;;;;;;;;10.80;99.90;;;;;;5082632;28;19909;-77
2022/11/04 04:01:29;;;;;;;;;;;10.80;99.90;;;;;;5081529;28;19908;-77
2022/11/04 04:04:18;;;;;;;;;;;10.90;99.90;;;;;;5081397;28;19909;-77
2022/11/04 04:06:44;;;;;;;;;;;10.90;99.90;;;;;;5082048;28;19909;-77
2022/11/04 04:09:45;;;;;;;;;;;10.90;99.90;;;;;;5081350;28;20249;-77
2022/11/04 04:12:23;;;;;;;;;;;10.90;99.90;;;;;;5004608;28;19910;-77
2022/11/04 04:14:53;;;;;;;;;;;10.90;99.90;;;;;;5036481;28;19948;-77
2022/11/04 04:17:36;;;;;;;;;;;10.80;99.90;;;;;;5045102;28;19920;-78
2022/11/04 04:20:04;;;;;;;;;;;10.80;99.90;;;;;;5046341;28;19939;-78
2022/11/04 04:22:32;;;;;;;;;;;10.80;99.90;;;;;;5064488;28;19909;-77
2022/11/04 04:27:43;;;;;;;;;;;10.80;99.90;;;;;;5082016;28;19915;-78
2022/11/04 04:30:11;;;;;;;;;;;10.80;99.90;;;;;;5081648;28;20087;-78
2022/11/04 04:32:39;;;;;;;;;;;10.80;99.90;;;;;;5082645;28;20222;-78
2022/11/04 04:37:51;;;;;;;;;;;10.80;99.90;;;;;;5071211;28;19924;-78
2022/11/04 04:45:52;;;;;;;;;;;10.80;99.90;;;;;;5085240;28;19927;-77
2022/11/04 04:48:18;;;;;;;;;;;10.80;99.90;;;;;;5084781;28;19908;-77
2022/11/04 04:50:47;;;;;;;;;;;10.80;99.90;;;;;;5083084;28;19947;-77
2022/11/04 04:53:12;;;;;;;;;;;10.70;99.90;;;;;;5054407;28;19919;-77
2022/11/04 04:55:38;;;;;;;;;;;10.80;99.90;;;;;;5064950;28;19908;-77
2022/11/04 04:58:04;;;;;;;;;;;10.80;99.90;;;;;;5065533;28;19913;-77
2022/11/04 05:00:29;;;;;;;;;;;10.70;99.90;;;;;;5065914;28;19962;-77
2022/11/04 05:02:55;;;;;;;;;;;10.80;99.90;;;;;;5081392;28;19940;-77
2022/11/04 05:05:21;;;;;;;;;;;10.70;99.90;;;;;;5085965;28;19950;-77
2022/11/04 05:07:46;;;;;;;;;;;10.80;99.90;;;;;;5085050;28;19962;-76
2022/11/04 05:10:13;;;;;;;;;;;10.80;99.90;;;;;;5084631;28;20119;-77
2022/11/04 05:15:24;;;;;;;;;;;10.80;99.90;;;;;;5084956;28;19955;-76
2022/11/04 05:17:54;;;;;;;;;;;10.80;99.90;;;;;;5067046;28;19978;-76
2022/11/04 05:20:20;;;;;;;;;;;10.70;99.90;;;;;;5084051;28;19914;-75
2022/11/04 05:22:46;;;;;;;;;;;10.70;99.90;;;;;;5080488;28;19923;-76
2022/11/04 05:25:11;;;;;;;;;;;10.70;99.90;;;;;;5080548;28;19994;-76
2022/11/04 05:27:37;;;;;;;;;;;10.70;99.90;;;;;;5081481;28;19916;-75
2022/11/04 05:30:03;;;;;;;;;;;10.70;99.90;;;;;;5067567;28;19909;-76
2022/11/04 05:32:30;;;;;;;;;;;10.70;99.90;;;;;;5083961;28;19938;-76
2022/11/04 05:34:55;;;;;;;;;;;10.70;99.90;;;;;;5085238;28;19908;-76
2022/11/04 05:37:21;;;;;;;;;;;10.70;99.90;;;;;;5083396;28;19920;-75
2022/11/04 05:39:47;;;;;;;;;;;10.70;99.90;;;;;;5083490;28;19909;-75
2022/11/04 05:42:12;;;;;;;;;;;10.70;99.90;;;;;;5085088;28;19916;-76
2022/11/04 05:44:38;;;;;;;;;;;10.70;99.90;;;;;;5083291;28;19946;-76
2022/11/04 05:47:04;;;;;;;;;;;10.70;99.90;;;;;;5083602;28;19908;-75
2022/11/04 05:49:30;;;;;;;;;;;10.70;99.90;;;;;;5083730;28;19915;-75
2022/11/04 05:51:55;;;;;;;;;;;10.60;99.90;;;;;;5084612;28;19912;-75
2022/11/04 05:54:21;;;;;;;;;;;10.60;99.90;;;;;;5084701;28;20162;-75
2022/11/04 05:56:47;;;;;;;;;;;10.60;99.90;;;;;;5084422;28;19942;-75
2022/11/04 05:59:12;;;;;;;;;;;10.60;99.90;;;;;;5083426;28;19916;-75
2022/11/04 06:01:39;;;;;;;;;;;10.70;99.90;;;;;;5083425;28;19908;-75
2022/11/04 06:04:04;;;;;;;;;;;10.60;99.90;;;;;;5066799;28;19917;-75
2022/11/04 06:06:32;;;;;;;;;;;10.70;99.90;;;;;;5066263;28;19908;-75
2022/11/04 06:08:59;;;;;;;;;;;10.70;99.90;;;;;;5084289;28;19909;-75
2022/11/04 06:11:25;;;;;;;;;;;10.70;99.90;;;;;;5083113;28;19919;-75
2022/11/04 06:13:50;;;;;;;;;;;10.60;99.90;;;;;;5083257;28;19909;-75
2022/11/04 06:16:16;;;;;;;;;;;10.60;99.90;;;;;;5084061;28;19966;-74
2022/11/04 06:18:42;;;;;;;;;;;10.60;99.90;;;;;;5083189;28;19909;-76
2022/11/04 06:21:13;;;;;;;;;;;10.60;99.90;;;;;;5083274;28;19908;-76
2022/11/04 06:23:42;;;;;;;;;;;10.60;99.90;;;;;;5064088;28;19909;-72
2022/11/04 06:26:08;;;;;;;;;;;10.50;99.90;;;;;;5062976;28;19941;-72
2022/11/04 06:28:34;;;;;;;;;;;10.50;99.90;;;;;;5055323;28;19979;-72
2022/11/04 06:31:01;;;;;;;;;;;10.50;99.90;;;;;;5078128;28;19932;-73
2022/11/04 06:33:27;;;;;;;;;;;10.50;99.90;;;;;;5078452;28;19939;-71
2022/11/04 06:35:59;;;;;;;;;;;10.50;99.90;;;;;;5066025;28;19913;-72
2022/11/04 06:38:24;;;;;;;;;;;10.50;99.90;;;;;;5092930;28;19924;-71
2022/11/04 06:40:50;;;;;;;;;;;10.50;99.90;;;;;;5075886;28;19958;-73
2022/11/04 06:43:16;;;;;;;;;;;10.50;99.90;;;;;;5062722;28;20235;-73
2022/11/04 06:45:42;;;;;;;;;;;10.50;99.90;;;;;;5063870;28;19916;-72
2022/11/04 06:48:07;;;;;;;;;;;10.40;99.90;;;;;;5062349;28;19909;-72
2022/11/04 06:50:33;;;;;;;;;;;10.50;99.90;;;;;;5063724;28;19983;-72
2022/11/04 06:52:59;;;;;;;;;;;10.40;99.90;;;;;;5078351;28;19908;-72
2022/11/04 06:55:24;;;;;;;;;;;10.40;99.90;;;;;;5081813;28;19943;-72
2022/11/04 06:57:50;;;;;;;;;;;10.40;99.90;;;;;;5082195;28;19916;-72
2022/11/04 07:00:16;;;;;;;;;;;10.30;99.90;;;;;;5083663;28;20173;-72
2022/11/04 07:02:42;;;;;;;;;;;10.30;99.90;;;;;;5065762;28;19923;-72
2022/11/04 07:05:07;;;;;;;;;;;10.40;99.90;;;;;;5083219;28;19908;-72
2022/11/04 07:07:33;;;;;;;;;;;10.40;99.90;;;;;;5081535;28;19991;-73
2022/11/04 07:09:59;;;;;;;;;;;10.40;99.90;;;;;;5083363;28;19913;-78
2022/11/04 07:12:24;;;;;;;;;;;10.30;99.90;;;;;;5082097;28;19908;-78
2022/11/04 07:14:50;;;;;;;;;;;10.30;99.90;;;;;;5066562;28;19908;-77
2022/11/04 07:17:23;;;;;;;;;;;10.40;99.90;;;;;;5100152;27;20139;-75
2022/11/04 07:19:49;;;;;;;;;;;10.40;99.90;;;;;;5081827;28;19912;-77
2022/11/04 07:22:14;;;;;;;;;;;10.50;99.90;;;;;;5098693;28;19908;-78
2022/11/04 07:24:40;;;;;;;;;;;10.50;99.90;;;;;;5092537;28;19915;-78
2022/11/04 07:27:06;;;;;;;;;;;10.50;99.90;;;;;;5078253;28;19924;-78
2022/11/04 07:29:32;;;;;;;;;;;10.50;99.90;;;;;;5078435;28;19962;-78
2022/11/04 07:31:58;;;;;;;;;;;10.50;99.90;;;;;;5061715;28;19909;-78
2022/11/04 07:34:23;;;;;;;;;;;10.60;99.90;;;;;;5078421;28;19908;-79
2022/11/04 07:36:49;;;;;;;;;;;10.60;99.90;;;;;;5061318;28;20302;-79
2022/11/04 07:39:15;;;;;;;;;;;10.60;99.90;;;;;;5061941;28;19909;-80
2022/11/04 07:41:40;;;;;;;;;;;10.60;99.90;;;;;;5046527;28;20417;-80
2022/11/04 07:44:08;;;;;;;;;;;10.60;99.90;;;;;;5083829;28;19917;-80
2022/11/04 07:46:34;;;;;;;;;;;10.70;99.90;;;;;;5065058;28;19909;-79
2022/11/04 07:49:00;;;;;;;;;;;10.70;99.90;;;;;;5079354;28;20259;-76
2022/11/04 07:51:25;;;;;;;;;;;10.70;99.90;;;;;;5083811;28;19916;-80
2022/11/04 07:53:51;;;;;;;;;;;10.70;99.90;;;;;;5066681;28;19917;-81
2022/11/04 07:56:17;;;;;;;;;;;10.70;99.90;;;;;;5065591;28;20120;-80
2022/11/04 07:58:43;;;;;;;;;;;10.70;99.90;;;;;;5063881;28;19915;-80
2022/11/04 08:01:15;;;;;;;;;;;10.70;99.90;;;;;;5062046;28;19940;-78
2022/11/04 08:03:40;;;;;;;;;;;10.70;99.90;;;;;;5080222;28;20116;-79
2022/11/04 08:06:07;;;;;;;;;;;10.60;99.90;;;;;;5078100;28;19923;-76
2022/11/04 08:08:32;;;;;;;;;;;10.60;99.90;;;;;;5060980;28;20115;-77
2022/11/04 08:11:06;;;;;;;;;;;10.60;99.90;;;;;;5078150;28;19909;-80
2022/11/04 08:13:33;;;;;;;;;;;10.70;99.90;;;;;;5063597;28;19923;-76
2022/11/04 08:16:04;;;;;;;;;;;10.70;99.90;;;;;;5077378;28;19939;-77
2022/11/04 08:18:31;;;;;;;;;;;10.70;99.90;;;;;;5077277;28;19913;-79
2022/11/04 08:20:56;;;;;;;;;;;10.80;99.90;;;;;;5060857;28;19939;-78
2022/11/04 08:23:22;;;;;;;;;;;10.80;99.90;;;;;;5084986;28;19912;-80
2022/11/04 08:25:48;;;;;;;;;;;10.80;99.90;;;;;;5076505;28;19955;-81
2022/11/04 08:28:16;;;;;;;;;;;10.80;99.90;;;;;;5062601;28;19909;-82
2022/11/04 08:30:52;;;;;;;;;;;10.70;99.90;;;;;;5077608;28;20219;-83
2022/11/04 08:33:18;;;;;;;;;;;10.70;99.90;;;;;;5079235;28;19938;-83
2022/11/04 08:35:44;;;;;;;;;;;10.70;99.90;;;;;;5079043;28;19951;-83
2022/11/04 08:38:09;;;;;;;;;;;10.70;99.90;;;;;;5079147;28;19932;-83
2022/11/04 08:40:35;;;;;;;;;;;10.70;99.90;;;;;;5076297;28;19920;-83
2022/11/04 08:43:01;;;;;;;;;;;10.70;99.90;;;;;;5059598;28;19924;-82
2022/11/04 08:45:27;;;;;;;;;;;10.70;99.90;;;;;;5046211;28;19940;-83
2022/11/04 08:47:52;;;;;;;;;;;10.70;99.90;;;;;;5058159;28;19908;-83
2022/11/04 08:50:18;;;;;;;;;;;10.80;99.90;;;;;;5041675;28;19956;-82
2022/11/04 08:52:44;;;;;;;;;;;10.80;99.90;;;;;;5065971;28;19915;-83
2022/11/04 08:55:09;;;;;;;;;;;10.80;99.90;;;;;;5066098;28;19909;-83
2022/11/04 08:57:35;;;;;;;;;;;10.80;99.90;;;;;;5032596;28;19919;-83
2022/11/04 09:00:02;;;;;;;;;;;10.70;99.90;;;;;;5065869;28;20242;-83
2022/11/04 09:02:28;;;;;;;;;;;10.70;99.90;;;;;;5065764;28;19954;-83
2022/11/04 09:04:54;;;;;;;;;;;10.70;99.90;;;;;;5032723;28;19908;-83
2022/11/04 09:07:19;;;;;;;;;;;10.70;99.90;;;;;;5066447;28;20254;-84
2022/11/04 09:09:45;;;;;;;;;;;10.70;99.90;;;;;;5066180;28;19930;-84
2022/11/04 09:12:11;;;;;;;;;;;10.70;99.90;;;;;;5049114;28;19917;-83
2022/11/04 09:14:37;;;;;;;;;;;10.70;99.90;;;;;;5066310;28;19931;-83
2022/11/04 09:17:02;;;;;;;;;;;10.80;99.90;;;;;;5048659;28;19983;-83
2022/11/04 09:19:28;;;;;;;;;;;10.80;99.90;;;;;;5065600;28;19915;-82
2022/11/04 09:21:54;;;;;;;;;;;10.80;99.90;;;;;;5048324;28;19932;-84
2022/11/04 09:24:19;;;;;;;;;;;10.80;99.90;;;;;;5031375;28;19928;-85
2022/11/04 09:26:45;;;;;;;;;;;10.80;99.90;;;;;;5048104;28;19909;-84
2022/11/04 09:29:11;;;;;;;;;;;10.80;99.90;;;;;;5048318;28;19917;-83
2022/11/04 09:31:36;;;;;;;;;;;10.80;99.90;;;;;;5065547;28;19962;-82
2022/11/04 09:34:02;;;;;;;;;;;10.80;99.90;;;;;;5064900;28;20016;-83
2022/11/04 09:36:28;;;;;;;;;;;10.80;99.90;;;;;;5063056;28;19920;-82
2022/11/04 09:38:53;;;;;;;;;;;10.80;99.90;;;;;;5062107;28;20384;-82
2022/11/04 09:41:42;;;;;;;;;;;10.80;99.90;;;;;;5063445;28;19916;-83
2022/11/04 09:44:20;;;;;;;;;;;10.80;99.90;;;;;;5049449;28;19909;-85
2022/11/04 09:46:48;;;;;;;;;;;10.80;99.90;;;;;;5064252;28;19909;-84
2022/11/04 09:49:15;;;;;;;;;;;10.70;99.90;;;;;;5047318;28;19909;-84
2022/11/04 09:51:41;;;;;;;;;;;10.80;99.90;;;;;;5064029;28;19950;-84
2022/11/04 09:54:21;;;;;;;;;;;10.80;99.90;;;;;;5030053;28;19917;-85
2022/11/04 09:56:48;;;;;;;;;;;10.70;99.90;;;;;;5047487;28;19920;-84
2022/11/04 09:59:24;;;;;;;;;;;10.80;99.90;;;;;;5030523;28;19909;-85
2022/11/04 10:02:08;;;;;;;;;;;10.80;99.90;;;;;;5049646;28;20026;-85
2022/11/04 10:04:41;;;;;;;;;;;10.80;99.90;;;;;;5073909;28;19940;-85
2022/11/04 10:07:38;;;;;;;;;;;10.90;99.90;;;;;;5071103;28;19952;-85
2022/11/04 10:10:07;;;;;;;;;;;10.90;99.90;;;;;;5073934;28;19909;-85
2022/11/04 10:13:07;;;;;;;;;;;10.90;99.90;;;;;;5073560;28;19925;-86
2022/11/04 10:15:42;;;;;;;;;;;11.00;99.90;;;;;;5053869;28;19916;-83
2022/11/04 10:18:26;;;;;;;;;;;11.00;99.90;;;;;;5084492;28;20103;-84
2022/11/04 10:21:14;;;;;;;;;;;11.00;99.90;;;;;;5098425;28;19923;-83
2022/11/04 10:23:52;;;;;;;;;;;11.00;99.90;;;;;;5093612;28;20446;-85
2022/11/04 10:26:38;;;;;;;;;;;11.10;99.90;;;;;;5099939;28;19943;-85
2022/11/04 10:29:05;;;;;;;;;;;11.10;99.90;;;;;;5102694;28;19930;-84
2022/11/04 10:31:31;;;;;;;;;;;11.20;99.90;;;;;;5085777;28;19953;-85
2022/11/04 10:34:06;;;;;;;;;;;11.20;99.90;;;;;;5085740;28;19987;-85
2022/11/04 10:36:31;;;;;;;;;;;11.30;99.90;;;;;;5088718;28;19927;-85
2022/11/04 10:38:57;;;;;;;;;;;11.40;99.90;;;;;;5085224;28;19908;-85
2022/11/04 10:41:23;;;;;;;;;;;11.40;99.90;;;;;;5085415;28;19908;-85
2022/11/04 10:44:10;;;;;;;;;;;11.50;99.90;;;;;;5102272;28;20245;-85
2022/11/04 10:46:48;;;;;;;;;;;11.50;99.90;;;;;;5068714;28;19908;-85
2022/11/04 10:49:19;;;;;;;;;;;11.60;99.90;;;;;;5102216;28;19961;-85
2022/11/04 10:51:45;;;;;;;;;;;11.70;99.90;;;;;;5104068;28;19930;-85
2022/11/04 10:54:11;;;;;;;;;;;11.70;99.90;;;;;;5083041;28;19916;-85
2022/11/04 10:56:40;;;;;;;;;;;11.80;99.90;;;;;;5050631;28;19920;-86
2022/11/04 10:59:29;;;;;;;;;;;12.00;99.90;;;;;;5064850;28;19909;-85
2022/11/04 11:01:56;;;;;;;;;;;12.10;99.90;;;;;;5065507;28;20279;-86
2022/11/04 11:04:33;;;;;;;;;;;12.20;99.90;;;;;;5081628;28;19915;-83
2022/11/04 11:07:03;;;;;;;;;;;12.30;99.90;;;;;;5081221;28;19909;-85
2022/11/04 11:09:34;;;;;;;;;;;12.30;99.90;;;;;;5081687;28;19909;-83
2022/11/04 11:12:12;;;;;;;;;;;12.40;99.90;;;;;;5081627;28;20186;-83
2022/11/04 11:14:38;;;;;;;;;;;12.40;99.90;;;;;;5082764;28;19979;-83
2022/11/04 11:17:13;;;;;;;;;;;12.40;99.90;;;;;;5064289;28;19916;-83
2022/11/04 11:19:56;;;;;;;;;;;12.30;99.90;;;;;;5082601;28;19947;-83
2022/11/04 11:22:42;;;;;;;;;;;12.30;99.90;;;;;;5077289;28;19985;-84
2022/11/04 11:25:20;;;;;;;;;;;12.20;99.90;;;;;;5101741;28;19908;-83
2022/11/04 11:28:08;;;;;;;;;;;12.30;99.90;;;;;;5102464;28;19908;-83
2022/11/04 11:30:43;;;;;;;;;;;12.30;99.90;;;;;;5102436;28;19922;-83
2022/11/04 11:33:27;;;;;;;;;;;12.30;99.90;;;;;;5091368;28;19917;-83
2022/11/04 11:36:23;;;;;;;;;;;12.40;99.90;;;;;;5081596;28;19973;-85
2022/11/04 11:39:03;;;;;;;;;;;12.30;99.90;;;;;;5081747;28;19912;-83
2022/11/04 11:41:32;;;;;;;;;;;12.30;99.90;;;;;;5081187;28;19971;-83
2022/11/04 11:44:06;;;;;;;;;;;12.40;99.90;;;;;;5081377;28;19946;-82
2022/11/04 11:46:33;;;;;;;;;;;12.40;99.90;;;;;;5064736;28;20131;-81
2022/11/04 11:49:00;;;;;;;;;;;12.40;99.90;;;;;;5064748;28;19971;-83
2022/11/04 11:51:26;;;;;;;;;;;12.40;99.90;;;;;;5082618;28;20293;-81
2022/11/04 11:54:13;;;;;;;;;;;12.30;99.90;;;;;;5097893;28;19975;-80
2022/11/04 11:56:42;;;;;;;;;;;12.30;99.90;;;;;;5081329;28;20150;-81
2022/11/04 11:59:19;;;;;;;;;;;12.20;99.90;;;;;;5081064;28;19908;-81
2022/11/04 12:01:49;;;;;;;;;;;12.20;99.90;;;;;;5081362;28;19908;-81
2022/11/04 12:04:16;;;;;;;;;;;12.10;99.90;;;;;;5082496;28;19983;-80
2022/11/04 12:06:47;;;;;;;;;;;12.10;99.90;;;;;;5084594;28;19917;-82
2022/11/04 12:09:33;;;;;;;;;;;12.10;99.90;;;;;;5101249;28;19948;-81
2022/11/04 12:12:05;;;;;;;;;;;12.20;99.90;;;;;;5084726;28;19966;-81
2022/11/04 12:14:31;;;;;;;;;;;12.20;99.90;;;;;;5085873;28;19908;-81
2022/11/04 12:17:22;;;;;;;;;;;12.30;99.90;;;;;;5085354;28;19931;-82
2022/11/04 12:20:06;;;;;;;;;;;12.40;99.90;;;;;;5085108;28;19952;-81
2022/11/04 12:22:50;;;;;;;;;;;12.50;99.90;;;;;;5091212;28;19916;-82
2022/11/04 12:25:21;;;;;;;;;;;12.50;99.90;;;;;;5086069;28;19992;-80
2022/11/04 12:28:09;;;;;;;;;;;12.50;99.90;;;;;;5068085;28;19923;-81
2022/11/04 12:31:10;;;;;;;;;;;12.50;99.90;;;;;;5085210;28;20342;-79
2022/11/04 12:33:51;;;;;;;;;;;12.60;99.90;;;;;;5068547;28;20226;-79
2022/11/04 12:36:32;;;;;;;;;;;12.60;99.90;;;;;;5084301;28;20119;-80
2022/11/04 12:39:04;;;;;;;;;;;12.50;99.90;;;;;;5085063;28;19927;-79
2022/11/04 12:41:45;;;;;;;;;;;12.60;99.90;;;;;;5084636;28;20108;-80
2022/11/04 12:44:23;;;;;;;;;;;12.50;99.90;;;;;;5069692;28;19931;-79
2022/11/04 12:47:13;;;;;;;;;;;12.50;99.90;;;;;;5086995;28;20219;-80
2022/11/04 12:50:09;;;;;;;;;;;12.50;99.90;;;;;;5087033;28;19909;-79
2022/11/04 12:53:12;;;;;;;;;;;12.40;99.90;;;;;;5086802;28;20048;-79
2022/11/04 12:55:49;;;;;;;;;;;12.50;99.90;;;;;;5087988;28;19919;-79
2022/11/04 12:58:17;;;;;;;;;;;12.40;99.90;;;;;;5083257;28;19944;-80
2022/11/04 13:00:44;;;;;;;;;;;12.40;99.90;;;;;;5105850;28;19912;-80
2022/11/04 13:03:19;;;;;;;;;;;12.50;99.90;;;;;;5088696;28;19908;-81
2022/11/04 13:05:51;;;;;;;;;;;12.50;99.90;;;;;;5090097;28;19916;-81
2022/11/04 13:08:39;;;;;;;;;;;12.40;99.90;;;;;;5087945;28;20131;-81
2022/11/04 13:11:23;;;;;;;;;;;12.40;99.90;;;;;;5089496;28;19915;-81
2022/11/04 13:13:55;;;;;;;;;;;12.30;99.90;;;;;;5105735;28;19966;-80
2022/11/04 13:16:21;;;;;;;;;;;12.30;99.90;;;;;;5087868;28;19963;-80
2022/11/04 13:18:48;;;;;;;;;;;12.20;99.90;;;;;;5104983;28;19923;-81
2022/11/04 13:21:26;;;;;;;;;;;12.30;99.90;;;;;;5085961;28;20196;-81
2022/11/04 13:24:15;;;;;;;;;;;12.20;99.90;;;;;;5084860;28;19916;-81
2022/11/04 13:26:42;;;;;;;;;;;12.20;99.90;;;;;;5067472;28;19916;-80
2022/11/04 13:29:15;;;;;;;;;;;12.20;99.90;;;;;;5084354;28;19909;-81
2022/11/04 13:32:08;;;;;;;;;;;12.20;99.90;;;;;;5084306;28;19915;-81
2022/11/04 13:34:46;;;;;;;;;;;12.20;99.90;;;;;;5084157;28;19909;-81
2022/11/04 13:37:30;;;;;;;;;;;12.10;99.90;;;;;;5083731;28;19920;-81
2022/11/04 13:40:15;;;;;;;;;;;12.00;99.90;;;;;;5084983;28;19909;-81
2022/11/04 13:45:52;;;;;;;;;;;12.00;99.90;;;;;;5084810;28;20235;-81
2022/11/04 13:48:25;;;;;;;;;;;12.00;99.90;;;;;;5068011;28;19982;-81
2022/11/04 13:51:10;;;;;;;;;;;12.00;99.90;;;;;;5083560;28;20203;-81
2022/11/04 13:53:49;;;;;;;;;;;12.00;99.90;;;;;;5085060;28;19917;-81
2022/11/04 13:56:25;;;;;;;;;;;12.00;99.90;;;;;;5084413;28;19916;-81
2022/11/04 13:58:52;;;;;;;;;;;12.00;99.90;;;;;;5085930;28;20026;-81
2022/11/04 14:01:18;;;;;;;;;;;12.00;99.90;;;;;;5084506;28;19923;-81
2022/11/04 14:04:13;;;;;;;;;;;12.00;99.90;;;;;;5085821;28;19909;-81
2022/11/04 14:06:52;;;;;;;;;;;11.90;99.90;;;;;;5085181;28;20218;-81
2022/11/04 14:09:42;;;;;;;;;;;11.90;99.90;;;;;;5084454;28;19908;-81
2022/11/04 14:12:13;;;;;;;;;;;11.80;99.90;;;;;;5083212;28;19931;-81
2022/11/04 14:14:40;;;;;;;;;;;11.80;99.90;;;;;;5083415;28;19917;-81
2022/11/04 14:17:34;;;;;;;;;;;11.70;99.90;;;;;;5067245;28;19962;-81
2022/11/04 14:20:20;;;;;;;;;;;11.70;99.90;;;;;;5085484;28;19908;-81
2022/11/04 14:22:53;;;;;;;;;;;11.70;99.90;;;;;;5082700;28;19908;-81
2022/11/04 14:25:29;;;;;;;;;;;11.60;99.90;;;;;;5083261;28;19915;-81
2022/11/04 14:28:24;;;;;;;;;;;11.70;99.90;;;;;;5069227;28;20221;-80
2022/11/04 14:31:00;;;;;;;;;;;11.70;99.90;;;;;;5083671;28;19908;-80
2022/11/04 14:33:34;;;;;;;;;;;11.70;99.90;;;;;;5088311;28;19912;-80
2022/11/04 14:36:19;;;;;;;;;;;11.70;99.90;;;;;;5086651;28;19912;-80
2022/11/04 14:39:09;;;;;;;;;;;11.70;99.90;;;;;;5104275;28;19915;-81
2022/11/04 14:41:58;;;;;;;;;;;11.70;99.90;;;;;;5104723;28;19915;-81
2022/11/04 14:44:36;;;;;;;;;;;11.70;99.90;;;;;;5086936;28;19912;-80
2022/11/04 14:47:19;;;;;;;;;;;11.60;99.90;;;;;;5090676;28;19922;-81
2022/11/04 14:49:49;;;;;;;;;;;11.60;99.90;;;;;;5095819;28;20072;-80
2022/11/04 14:52:18;;;;;;;;;;;11.60;99.90;;;;;;5082858;28;19931;-82
2022/11/04 14:54:44;;;;;;;;;;;11.60;99.90;;;;;;5073046;28;19948;-81
2022/11/04 14:57:17;;;;;;;;;;;11.60;99.90;;;;;;5088052;28;19936;-79
2022/11/04 14:59:43;;;;;;;;;;;11.60;99.90;;;;;;5084370;28;19908;-82
2022/11/04 15:02:40;;;;;;;;;;;11.60;99.90;;;;;;5084207;28;19908;-81
2022/11/04 15:05:05;;;;;;;;;;;11.60;99.90;;;;;;5080885;28;19909;-82
2022/11/04 15:07:38;;;;;;;;;;;11.60;99.90;;;;;;5081967;28;19954;-85
2022/11/04 15:10:25;;;;;;;;;;;11.60;99.90;;;;;;5066833;28;19909;-81
2022/11/04 15:12:53;;;;;;;;;;;11.70;99.90;;;;;;5082624;28;19909;-82
2022/11/04 15:15:34;;;;;;;;;;;11.60;99.90;;;;;;5082122;28;20145;-81